createdAt,value
2023-04-29T00:02:15.579Z,13.82
2023-04-29T00:04:42.015Z,13.27
2023-04-29T00:07:08.996Z,12.88
2023-04-29T00:09:36.090Z,13.30
2023-04-29T00:12:02.486Z,14.18
2023-04-29T00:14:28.792Z,13.77
2023-04-29T00:16:55.127Z,11.23
2023-04-29T00:19:21.632Z,13.10
2023-04-29T00:21:48.016Z,12.40
2023-04-29T00:24:14.378Z,13.80
2023-04-29T00:26:41.229Z,9.40
2023-04-29T00:29:07.548Z,15.77
2023-04-29T00:31:33.955Z,12.73
2023-04-29T00:34:00.361Z,13.07
2023-04-29T00:36:26.656Z,14.57
2023-04-29T00:38:52.997Z,11.10
2023-04-29T00:41:19.642Z,14.20
2023-04-29T00:43:46.038Z,14.25
2023-04-29T00:46:12.438Z,14.02
2023-04-29T00:48:39.136Z,11.18
2023-04-29T00:51:05.729Z,11.73
2023-04-29T00:53:32.797Z,15.10
2023-04-29T00:56:00.727Z,8.68
2023-04-29T00:58:33.235Z,14.73
2023-04-29T01:01:00.483Z,14.90
2023-04-29T01:03:29.234Z,12.48
2023-04-29T01:06:21.135Z,11.32
2023-04-29T01:08:56.476Z,15.02
2023-04-29T01:11:28.715Z,14.60
2023-04-29T01:14:00.642Z,14.90
2023-04-29T01:16:51.884Z,14.88
2023-04-29T01:19:36.118Z,14.63
2023-04-29T01:22:02.418Z,14.10
2023-04-29T01:24:28.982Z,15.43
2023-04-29T01:26:59.679Z,14.35
2023-04-29T01:29:40.173Z,15.02
2023-04-29T01:32:13.615Z,14.03
2023-04-29T01:34:53.421Z,15.55
2023-04-29T01:37:41.945Z,11.07
2023-04-29T01:40:19.464Z,14.13
2023-04-29T01:42:51.680Z,13.65
2023-04-29T01:45:19.067Z,12.13
2023-04-29T01:47:47.082Z,14.40
2023-04-29T01:50:13.389Z,13.80
2023-04-29T01:52:39.861Z,14.48
2023-04-29T01:55:06.666Z,13.07
2023-04-29T01:57:33.071Z,12.90
2023-04-29T01:59:59.672Z,13.38
2023-04-29T02:02:26.080Z,13.55
2023-04-29T02:04:52.484Z,14.05
2023-04-29T02:07:18.922Z,12.68
2023-04-29T02:09:45.220Z,13.30
2023-04-29T02:12:11.547Z,12.15
2023-04-29T02:14:38.228Z,13.18
2023-04-29T02:17:04.753Z,13.00
2023-04-29T02:19:31.063Z,13.05
2023-04-29T02:21:57.373Z,12.30
2023-04-29T02:24:23.733Z,12.27
2023-04-29T02:26:50.044Z,11.73
2023-04-29T02:29:16.368Z,11.25
2023-04-29T02:31:42.688Z,12.00
2023-04-29T02:34:09.099Z,11.63
2023-04-29T02:36:35.435Z,12.77
2023-04-29T02:39:02.149Z,11.95
2023-04-29T02:41:28.542Z,11.05
2023-04-29T02:43:54.824Z,11.30
2023-04-29T02:46:21.324Z,10.98
2023-04-29T02:48:47.839Z,12.30
2023-04-29T02:51:14.414Z,11.35
2023-04-29T02:53:40.705Z,10.40
2023-04-29T02:56:07.643Z,11.05
2023-04-29T02:58:33.962Z,11.63
2023-04-29T03:01:00.285Z,9.63
2023-04-29T03:03:26.802Z,9.25
2023-04-29T03:05:53.223Z,10.60
2023-04-29T03:08:19.548Z,11.70
2023-04-29T03:10:46.593Z,6.45
2023-04-29T03:13:13.051Z,11.40
2023-04-29T03:15:39.414Z,9.38
2023-04-29T03:18:05.854Z,8.80
2023-04-29T03:20:32.591Z,10.35
2023-04-29T03:22:59.844Z,10.43
2023-04-29T03:25:26.231Z,9.55
2023-04-29T03:27:52.548Z,10.50
2023-04-29T03:30:18.857Z,10.15
2023-04-29T03:32:45.275Z,10.15
2023-04-29T03:35:13.540Z,8.73
2023-04-29T03:37:44.102Z,9.25
2023-04-29T03:40:11.096Z,9.52
2023-04-29T03:42:37.398Z,8.45
2023-04-29T03:45:03.986Z,9.07
2023-04-29T03:47:30.349Z,9.57
2023-04-29T03:49:56.693Z,9.00
2023-04-29T03:52:23.108Z,9.07
2023-04-29T03:54:49.502Z,10.18
2023-04-29T03:57:15.811Z,8.43
2023-04-29T03:59:42.539Z,8.80
2023-04-29T04:02:11.666Z,8.88
2023-04-29T04:04:38.245Z,9.20
2023-04-29T04:07:04.824Z,9.82
2023-04-29T04:09:31.127Z,8.23
2023-04-29T04:11:57.401Z,10.25
2023-04-29T04:14:23.698Z,8.98
2023-04-29T04:16:50.716Z,9.60
2023-04-29T04:19:17.262Z,7.25
2023-04-29T04:21:43.596Z,8.48
2023-04-29T04:24:09.912Z,9.00
2023-04-29T04:26:36.240Z,9.07
2023-04-29T04:29:02.601Z,9.02
2023-04-29T04:31:29.925Z,10.15
2023-04-29T04:33:56.570Z,10.05
2023-04-29T04:36:23.016Z,9.32
2023-04-29T04:38:49.333Z,9.50
2023-04-29T04:41:15.646Z,7.78
2023-04-29T04:43:42.316Z,9.23
2023-04-29T04:46:16.751Z,9.32
2023-04-29T04:48:43.529Z,8.63
2023-04-29T04:51:11.248Z,10.48
2023-04-29T04:53:37.889Z,9.85
2023-04-29T04:56:04.833Z,9.77
2023-04-29T04:58:32.484Z,9.00
2023-04-29T05:00:59.584Z,9.30
2023-04-29T05:03:26.441Z,9.57
2023-04-29T05:06:00.313Z,9.50
2023-04-29T05:08:26.952Z,10.00
2023-04-29T05:10:54.263Z,9.75
2023-04-29T05:13:20.940Z,9.70
2023-04-29T05:15:47.528Z,9.10
2023-04-29T05:18:13.823Z,9.18
2023-04-29T05:20:40.147Z,9.73
2023-04-29T05:23:06.489Z,8.60
2023-04-29T05:25:32.883Z,8.73
2023-04-29T05:27:59.250Z,7.28
2023-04-29T05:30:25.641Z,9.35
2023-04-29T05:32:52.206Z,9.32
2023-04-29T05:35:21.952Z,9.10
2023-04-29T05:37:48.275Z,9.63
2023-04-29T05:40:14.590Z,8.70
2023-04-29T05:42:41.279Z,9.90
2023-04-29T05:45:08.333Z,9.52
2023-04-29T05:47:34.677Z,8.88
2023-04-29T05:50:00.993Z,9.70
2023-04-29T05:52:27.298Z,8.23
2023-04-29T05:54:53.661Z,10.40
2023-04-29T05:57:19.946Z,10.15
2023-04-29T05:59:46.415Z,8.20
2023-04-29T06:02:12.893Z,9.60
2023-04-29T06:04:41.170Z,10.20
2023-04-29T06:07:09.155Z,10.00
2023-04-29T06:09:36.579Z,9.75
2023-04-29T06:12:03.396Z,9.80
2023-04-29T06:14:29.768Z,10.55
2023-04-29T06:16:56.575Z,9.68
2023-04-29T06:19:23.242Z,9.80
2023-04-29T06:21:49.616Z,10.85
2023-04-29T06:24:16.020Z,9.48
2023-04-29T06:26:42.392Z,10.07
2023-04-29T06:29:08.872Z,9.15
2023-04-29T06:31:35.310Z,9.65
2023-04-29T06:34:01.705Z,10.07
2023-04-29T06:36:28.156Z,9.68
2023-04-29T06:38:54.669Z,8.10
2023-04-29T06:41:20.998Z,7.57
2023-04-29T06:43:48.674Z,9.95
2023-04-29T06:46:15.518Z,9.77
2023-04-29T06:48:41.888Z,9.13
2023-04-29T06:51:08.314Z,7.55
2023-04-29T06:53:34.660Z,7.80
2023-04-29T06:56:00.980Z,9.63
2023-04-29T06:58:27.364Z,9.35
2023-04-29T07:00:53.699Z,9.65
2023-04-29T07:03:20.250Z,9.57
2023-04-29T07:05:46.639Z,9.32
2023-04-29T07:08:13.562Z,9.35
2023-04-29T07:10:41.580Z,9.82
2023-04-29T07:13:08.015Z,9.18
2023-04-29T07:15:35.416Z,8.27
2023-04-29T07:18:04.402Z,8.80
2023-04-29T07:20:31.223Z,9.48
2023-04-29T07:22:57.708Z,9.20
2023-04-29T07:25:24.058Z,9.80
2023-04-29T07:27:50.352Z,9.35
2023-04-29T07:30:16.700Z,9.80
2023-04-29T07:32:43.114Z,7.28
2023-04-29T07:35:09.582Z,9.07
2023-04-29T07:37:35.912Z,9.23
2023-04-29T07:40:02.506Z,9.00
2023-04-29T07:42:28.916Z,6.30
2023-04-29T07:44:55.843Z,8.95
2023-04-29T07:47:22.178Z,8.63
2023-04-29T07:49:48.516Z,8.75
2023-04-29T07:52:14.807Z,8.85
2023-04-29T07:54:41.120Z,8.52
2023-04-29T07:57:07.413Z,8.50
2023-04-29T07:59:33.794Z,8.23
2023-04-29T08:02:00.159Z,9.80
2023-04-29T08:04:26.748Z,9.40
2023-04-29T08:06:53.382Z,8.88
2023-04-29T08:09:19.698Z,8.65
2023-04-29T08:11:46.521Z,9.07
2023-04-29T08:14:12.818Z,8.73
2023-04-29T08:16:39.291Z,7.43
2023-04-29T08:19:05.638Z,8.70
2023-04-29T08:21:32.111Z,8.10
2023-04-29T08:23:58.456Z,8.50
2023-04-29T08:26:25.658Z,7.40
2023-04-29T08:28:52.079Z,7.72
2023-04-29T08:31:19.957Z,7.40
2023-04-29T08:33:46.762Z,7.65
2023-04-29T08:36:13.456Z,6.28
2023-04-29T08:38:40.154Z,7.00
2023-04-29T08:41:09.727Z,7.25
2023-04-29T08:43:40.855Z,7.18
2023-04-29T08:48:34.658Z,7.55
2023-04-29T08:51:02.307Z,7.47
2023-04-29T08:53:29.070Z,7.47
2023-04-29T08:56:00.673Z,8.05
2023-04-29T08:58:28.772Z,7.70
2023-04-29T09:00:55.951Z,7.03
2023-04-29T09:03:46.906Z,7.30
2023-04-29T09:06:14.151Z,7.20
2023-04-29T09:08:41.071Z,6.22
2023-04-29T09:11:12.055Z,7.18
2023-04-29T09:13:38.475Z,7.05
2023-04-29T09:16:05.967Z,7.05
2023-04-29T09:18:44.330Z,4.18
2023-04-29T09:21:25.074Z,7.38
2023-04-29T09:24:01.925Z,6.75
2023-04-29T09:26:40.805Z,7.05
2023-04-29T09:29:13.758Z,7.35
2023-04-29T09:31:40.903Z,7.13
2023-04-29T09:34:07.436Z,7.78
2023-04-29T09:36:50.791Z,7.13
2023-04-29T09:39:19.244Z,6.93
2023-04-29T09:41:54.394Z,6.97
2023-04-29T09:44:23.026Z,6.45
2023-04-29T09:47:03.667Z,7.38
2023-04-29T09:49:37.028Z,5.85
2023-04-29T09:52:08.066Z,6.95
2023-04-29T09:57:06.515Z,8.07
2023-04-29T09:59:38.172Z,6.95
2023-04-29T10:02:18.201Z,6.97
2023-04-29T10:04:46.666Z,6.30
2023-04-29T10:07:15.658Z,7.05
2023-04-29T10:09:44.189Z,7.28
2023-04-29T10:12:11.335Z,6.32
2023-04-29T10:14:45.542Z,6.72
2023-04-29T10:17:18.215Z,6.60
2023-04-29T10:19:58.491Z,5.88
2023-04-29T10:22:47.106Z,6.05
2023-04-29T10:25:19.005Z,5.57
2023-04-29T10:27:46.206Z,5.45
2023-04-29T10:30:14.351Z,6.07
2023-04-29T10:32:50.560Z,5.90
2023-04-29T10:35:20.117Z,5.75
2023-04-29T10:37:48.482Z,5.22
2023-04-29T10:40:22.304Z,4.95
2023-04-29T10:42:51.384Z,5.47
2023-04-29T10:45:28.525Z,5.45
2023-04-29T10:48:08.703Z,5.68
2023-04-29T10:50:47.074Z,5.55
2023-04-29T10:53:14.755Z,5.22
2023-04-29T10:55:41.849Z,4.55
2023-04-29T10:58:36.226Z,5.45
2023-04-29T11:01:03.515Z,4.80
2023-04-29T11:04:02.171Z,4.65
2023-04-29T11:06:37.523Z,5.28
2023-04-29T11:09:09.033Z,4.78
2023-04-29T11:11:44.432Z,4.93
2023-04-29T11:14:13.521Z,4.70
2023-04-29T11:16:51.977Z,3.95
2023-04-29T11:19:18.489Z,4.45
2023-04-29T11:21:47.007Z,4.40
2023-04-29T11:24:15.891Z,4.40
2023-04-29T11:26:43.307Z,4.63
2023-04-29T11:29:10.584Z,4.20
2023-04-29T11:31:39.019Z,4.35
2023-04-29T11:34:06.637Z,3.90
2023-04-29T11:36:34.262Z,3.67
2023-04-29T11:39:02.189Z,4.53
2023-04-29T11:41:28.655Z,4.40
2023-04-29T11:43:59.740Z,3.70
2023-04-29T11:48:57.997Z,3.53
2023-04-29T11:51:24.464Z,3.38
2023-04-29T11:53:52.473Z,3.70
2023-04-29T11:56:24.123Z,3.92
2023-04-29T11:58:50.873Z,4.60
2023-04-29T12:01:17.232Z,3.58
2023-04-29T12:03:43.982Z,3.83
2023-04-29T12:06:10.732Z,3.80
2023-04-29T12:08:37.021Z,3.83
2023-04-29T12:11:03.874Z,3.00
2023-04-29T12:13:30.971Z,3.25
2023-04-29T12:15:58.966Z,3.13
2023-04-29T12:18:27.565Z,3.10
2023-04-29T12:20:57.071Z,3.33
2023-04-29T12:23:24.653Z,3.88
2023-04-29T12:25:55.096Z,3.53
2023-04-29T12:28:21.981Z,3.78
2023-04-29T12:30:49.705Z,3.67
2023-04-29T12:33:19.946Z,3.35
2023-04-29T12:35:46.278Z,3.07
2023-04-29T12:38:16.459Z,3.33
2023-04-29T12:40:44.260Z,3.90
2023-04-29T12:43:10.816Z,2.88
2023-04-29T12:45:38.561Z,2.53
2023-04-29T12:48:09.162Z,2.97
2023-04-29T12:50:41.536Z,2.83
2023-04-29T12:53:09.278Z,2.30
2023-04-29T12:55:37.635Z,2.78
2023-04-29T12:58:05.292Z,2.70
2023-04-29T13:00:35.002Z,3.13
2023-04-29T13:03:01.813Z,11.82
2023-04-29T13:05:28.460Z,2.95
2023-04-29T13:07:55.515Z,2.47
2023-04-29T13:10:22.065Z,2.97
2023-04-29T13:12:48.348Z,2.72
2023-04-29T13:15:15.706Z,3.13
2023-04-29T13:17:42.177Z,2.80
2023-04-29T13:20:10.906Z,2.50
2023-04-29T13:22:37.551Z,2.40
2023-04-29T13:25:04.601Z,2.60
2023-04-29T13:27:31.338Z,3.10
2023-04-29T13:29:57.981Z,2.40
2023-04-29T13:32:24.731Z,2.53
2023-04-29T13:34:51.470Z,3.00
2023-04-29T13:37:18.034Z,2.60
2023-04-29T13:39:45.887Z,2.60
2023-04-29T13:42:15.408Z,2.53
2023-04-29T13:44:59.083Z,2.70
2023-04-29T13:47:29.937Z,2.67
2023-04-29T13:50:36.939Z,3.38
2023-04-29T14:00:31.554Z,2.78
2023-04-29T14:05:30.595Z,2.28
2023-04-29T14:07:57.143Z,2.17
2023-04-29T14:10:23.506Z,1.35
2023-04-29T14:12:49.860Z,2.28
2023-04-29T14:15:16.600Z,2.00
2023-04-29T14:17:43.161Z,2.25
2023-04-29T14:20:09.862Z,2.42
2023-04-29T14:22:36.337Z,2.10
2023-04-29T14:25:02.660Z,2.50
2023-04-29T14:27:28.959Z,2.10
2023-04-29T14:29:55.245Z,2.38
2023-04-29T14:32:21.614Z,2.70
2023-04-29T14:34:47.917Z,2.55
2023-04-29T14:37:14.278Z,2.20
2023-04-29T14:39:40.647Z,2.78
2023-04-29T14:42:07.514Z,2.22
2023-04-29T14:44:33.843Z,2.15
2023-04-29T14:47:00.526Z,2.83
2023-04-29T14:49:27.439Z,2.50
2023-04-29T14:51:55.743Z,2.67
2023-04-29T14:54:22.125Z,2.60
2023-04-29T14:56:48.488Z,2.72
2023-04-29T14:59:14.888Z,2.40
2023-04-29T15:01:41.242Z,2.42
2023-04-29T15:04:07.875Z,2.33
2023-04-29T15:06:35.094Z,2.20
2023-04-29T15:09:01.714Z,2.08
2023-04-29T15:11:28.058Z,1.80
2023-04-29T15:13:54.373Z,2.10
2023-04-29T15:16:20.868Z,1.85
2023-04-29T15:18:47.277Z,2.15
2023-04-29T15:21:13.631Z,2.15
2023-04-29T15:23:39.929Z,2.20
2023-04-29T15:26:07.033Z,2.33
2023-04-29T15:28:33.426Z,2.20
2023-04-29T15:31:01.727Z,2.45
2023-04-29T15:33:28.093Z,3.15
2023-04-29T15:35:55.815Z,2.97
2023-04-29T15:38:22.301Z,2.35
2023-04-29T15:40:48.711Z,2.05
2023-04-29T15:43:15.444Z,1.90
2023-04-29T15:45:42.363Z,2.25
2023-04-29T15:48:08.808Z,2.10
2023-04-29T15:50:35.244Z,1.52
2023-04-29T15:53:01.590Z,1.70
2023-04-29T15:55:27.924Z,1.80
2023-04-29T15:57:54.227Z,1.83
2023-04-29T16:00:20.553Z,1.73
2023-04-29T16:02:46.962Z,1.70
2023-04-29T16:05:13.315Z,1.73
2023-04-29T16:07:40.018Z,1.60
2023-04-29T16:10:06.643Z,1.65
2023-04-29T16:12:32.994Z,1.60
2023-04-29T16:14:59.290Z,1.88
2023-04-29T16:17:25.621Z,1.98
2023-04-29T16:19:52.116Z,1.67
2023-04-29T16:22:18.748Z,1.98
2023-04-29T16:24:46.950Z,1.95
2023-04-29T16:27:15.206Z,2.10
2023-04-29T16:29:41.538Z,2.55
2023-04-29T16:32:08.071Z,2.22
2023-04-29T16:34:34.407Z,1.98
2023-04-29T16:37:00.754Z,2.40
2023-04-29T16:39:27.071Z,2.35
2023-04-29T16:41:53.403Z,2.78
2023-04-29T16:44:19.768Z,2.42
2023-04-29T16:46:46.279Z,2.15
2023-04-29T16:49:12.578Z,2.25
2023-04-29T16:51:39.054Z,2.08
2023-04-29T16:54:05.382Z,2.17
2023-04-29T16:56:31.705Z,2.10
2023-04-29T16:58:58.011Z,1.83
2023-04-29T17:01:24.416Z,1.77
2023-04-29T17:03:50.860Z,1.92
2023-04-29T17:06:17.416Z,2.22
2023-04-29T17:08:44.437Z,2.00
2023-04-29T17:11:10.913Z,2.20
2023-04-29T17:13:37.223Z,1.98
2023-04-29T17:16:03.825Z,2.25
2023-04-29T17:18:30.250Z,2.17
2023-04-29T17:20:56.573Z,2.30
2023-04-29T17:23:23.038Z,1.90
2023-04-29T17:25:49.337Z,2.10
2023-04-29T17:28:15.716Z,1.85
2023-04-29T17:30:42.082Z,2.00
2023-04-29T17:33:08.711Z,1.95
2023-04-29T17:35:35.182Z,2.28
2023-04-29T17:38:01.644Z,1.90
2023-04-29T17:40:27.996Z,2.00
2023-04-29T17:42:54.392Z,2.10
2023-04-29T17:45:20.825Z,2.00
2023-04-29T17:47:48.131Z,2.00
2023-04-29T17:50:14.476Z,2.05
2023-04-29T17:52:41.068Z,1.70
2023-04-29T17:55:07.740Z,1.90
2023-04-29T17:57:34.246Z,1.60
2023-04-29T18:00:00.805Z,1.73
2023-04-29T18:02:27.479Z,1.88
2023-04-29T18:04:53.972Z,1.85
2023-04-29T18:07:20.295Z,1.88
2023-04-29T18:09:46.647Z,1.77
2023-04-29T18:12:13.017Z,2.05
2023-04-29T18:14:39.503Z,2.22
2023-04-29T18:17:05.940Z,1.70
2023-04-29T18:19:32.347Z,1.80
2023-04-29T18:22:01.278Z,2.00
2023-04-29T18:24:30.971Z,2.10
2023-04-29T18:26:57.827Z,2.40
2023-04-29T18:29:24.239Z,1.90
2023-04-29T18:31:50.724Z,2.35
2023-04-29T18:34:17.165Z,2.65
2023-04-29T18:36:43.453Z,3.10
2023-04-29T18:39:09.754Z,2.60
2023-04-29T18:41:36.577Z,1.90
2023-04-29T18:44:02.913Z,2.28
2023-04-29T18:46:30.413Z,2.17
2023-04-29T18:49:17.954Z,2.10
2023-04-29T18:51:48.133Z,1.92
2023-04-29T18:54:16.442Z,2.13
2023-04-29T18:56:46.328Z,2.05
2023-04-29T18:59:15.663Z,5.57
2023-04-29T19:01:43.048Z,2.85
2023-04-29T19:04:10.235Z,2.55
2023-04-29T19:06:37.082Z,2.03
2023-04-29T19:09:03.821Z,2.13
2023-04-29T19:11:30.210Z,2.35
2023-04-29T19:13:56.643Z,2.00
2023-04-29T19:16:24.163Z,2.10
2023-04-29T19:18:50.846Z,3.20
2023-04-29T19:21:18.338Z,2.83
2023-04-29T19:23:44.687Z,2.88
2023-04-29T19:26:11.194Z,3.33
2023-04-29T19:28:37.513Z,5.18
2023-04-29T19:31:04.076Z,5.15
2023-04-29T19:33:30.889Z,4.03
2023-04-29T19:35:57.381Z,3.70
2023-04-29T19:38:24.275Z,3.40
2023-04-29T19:40:54.329Z,2.88
2023-04-29T19:43:20.617Z,2.90
2023-04-29T19:45:46.910Z,3.10
2023-04-29T19:48:13.864Z,3.42
2023-04-29T19:50:40.208Z,3.50
2023-04-29T19:53:06.567Z,3.20
2023-04-29T19:55:33.597Z,2.70
2023-04-29T19:57:59.971Z,3.10
2023-04-29T20:00:26.949Z,3.33
2023-04-29T20:02:53.478Z,3.22
2023-04-29T20:05:19.859Z,2.85
2023-04-29T20:07:46.172Z,3.20
2023-04-29T20:10:12.552Z,2.88
2023-04-29T20:12:40.171Z,2.72
2023-04-29T20:15:07.983Z,2.90
2023-04-29T20:17:34.576Z,3.10
2023-04-29T20:20:01.473Z,2.95
2023-04-29T20:22:29.157Z,2.72
2023-04-29T20:24:55.457Z,2.80
2023-04-29T20:27:21.842Z,2.55
2023-04-29T20:29:48.535Z,3.00
2023-04-29T20:32:14.870Z,3.42
2023-04-29T20:34:41.771Z,2.92
2023-04-29T20:37:09.627Z,3.25
2023-04-29T20:39:36.820Z,2.90
2023-04-29T20:42:03.288Z,3.17
2023-04-29T20:44:29.878Z,3.15
2023-04-29T20:46:56.183Z,3.30
2023-04-29T20:49:22.564Z,2.60
2023-04-29T20:51:49.255Z,2.70
2023-04-29T20:54:15.588Z,3.10
2023-04-29T20:56:41.924Z,3.30
2023-04-29T20:59:08.247Z,3.90
2023-04-29T21:01:35.558Z,3.60
2023-04-29T21:04:05.060Z,3.40
2023-04-29T21:06:32.040Z,3.72
2023-04-29T21:08:58.526Z,3.58
2023-04-29T21:11:24.841Z,3.50
2023-04-29T21:13:51.618Z,3.80
2023-04-29T21:16:19.149Z,3.60
2023-04-29T21:18:45.790Z,3.55
2023-04-29T21:21:12.439Z,3.95
2023-04-29T21:23:39.110Z,3.90
2023-04-29T21:26:05.427Z,3.78
2023-04-29T21:28:31.810Z,4.22
2023-04-29T21:30:58.522Z,3.50
2023-04-29T21:33:25.057Z,4.00
2023-04-29T21:35:51.691Z,4.07
2023-04-29T21:38:18.605Z,4.18
2023-04-29T21:40:49.527Z,4.25
2023-04-29T21:43:16.886Z,3.80
2023-04-29T21:45:44.490Z,4.25
2023-04-29T21:48:17.009Z,4.30
2023-04-29T21:50:44.491Z,4.90
2023-04-29T21:53:12.667Z,4.50
2023-04-29T21:55:40.890Z,4.13
2023-04-29T21:58:07.523Z,4.43
2023-04-29T22:00:36.460Z,4.28
2023-04-29T22:03:03.628Z,4.78
2023-04-29T22:05:30.325Z,3.63
2023-04-29T22:07:59.426Z,4.20
2023-04-29T22:10:25.936Z,4.15
2023-04-29T22:12:52.506Z,3.92
2023-04-29T22:15:28.302Z,3.78
2023-04-29T22:17:56.811Z,3.80
2023-04-29T22:20:23.370Z,4.18
2023-04-29T22:22:49.715Z,4.03
2023-04-29T22:25:16.070Z,4.50
2023-04-29T22:27:42.365Z,3.90
2023-04-29T22:30:09.121Z,3.85
2023-04-29T22:32:36.181Z,3.65
2023-04-29T22:35:02.535Z,4.10
2023-04-29T22:37:28.865Z,4.22
2023-04-29T22:39:56.374Z,4.35
2023-04-29T22:42:23.179Z,4.15
2023-04-29T22:44:49.560Z,4.03
2023-04-29T22:47:15.863Z,4.13
2023-04-29T22:49:42.172Z,4.40
2023-04-29T22:52:08.661Z,4.63
2023-04-29T22:54:35.572Z,4.45
2023-04-29T22:57:03.454Z,4.18
2023-04-29T22:59:29.866Z,4.13
2023-04-29T23:01:58.071Z,3.75
2023-04-29T23:04:24.707Z,3.70
2023-04-29T23:06:51.489Z,3.78
2023-04-29T23:09:17.905Z,4.68
2023-04-29T23:11:44.383Z,3.42
2023-04-29T23:14:10.684Z,4.03
2023-04-29T23:16:37.005Z,3.90
2023-04-29T23:19:03.559Z,3.50
2023-04-29T23:21:29.881Z,3.97
2023-04-29T23:23:56.314Z,3.55
2023-04-29T23:26:23.276Z,3.65
2023-04-29T23:28:49.582Z,4.00
2023-04-29T23:31:16.144Z,4.30
2023-04-29T23:33:42.507Z,4.13
2023-04-29T23:36:08.847Z,3.88
2023-04-29T23:38:35.145Z,4.20
2023-04-29T23:41:01.507Z,4.90
2023-04-29T23:43:27.818Z,5.05
2023-04-29T23:45:54.169Z,4.40
2023-04-29T23:48:20.687Z,5.22
2023-04-29T23:50:47.236Z,4.57
2023-04-29T23:53:13.630Z,4.70
2023-04-29T23:55:40.036Z,4.75
2023-04-29T23:58:07.439Z,4.60
